sensor_id;sensor_type;location;lat;lon;timestamp;pressure;altitude;pressure_sealevel;temperature;humidity
79589;BME280;69067;51.930;4.492;2023-10-08T00:00:26;102271.88;;;26.19;46.53
79589;BME280;69067;51.930;4.492;2023-10-08T00:03:11;102280.25;;;26.18;46.53
79589;BME280;69067;51.930;4.492;2023-10-08T00:05:39;102284.50;;;26.20;46.98
79589;BME280;69067;51.930;4.492;2023-10-08T00:08:06;102288.06;;;26.21;46.39
79589;BME280;69067;51.930;4.492;2023-10-08T00:10:39;102294.38;;;26.21;45.88
79589;BME280;69067;51.930;4.492;2023-10-08T00:13:07;102288.91;;;26.21;46.29
79589;BME280;69067;51.930;4.492;2023-10-08T00:15:35;102283.44;;;26.21;46.58
79589;BME280;69067;51.930;4.492;2023-10-08T00:18:05;102284.28;;;26.22;46.52
79589;BME280;69067;51.930;4.492;2023-10-08T00:20:40;102293.31;;;26.22;46.82
79589;BME280;69067;51.930;4.492;2023-10-08T00:23:13;102292.28;;;26.23;46.92
79589;BME280;69067;51.930;4.492;2023-10-08T00:25:40;102279.84;;;26.21;46.36
79589;BME280;69067;51.930;4.492;2023-10-08T00:28:09;102276.31;;;26.20;46.65
79589;BME280;69067;51.930;4.492;2023-10-08T00:30:40;102277.97;;;26.21;46.97
79589;BME280;69067;51.930;4.492;2023-10-08T00:33:09;102264.13;;;26.23;47.13
79589;BME280;69067;51.930;4.492;2023-10-08T00:35:38;102261.59;;;26.21;46.95
79589;BME280;69067;51.930;4.492;2023-10-08T00:38:05;102254.47;;;26.20;47.13
79589;BME280;69067;51.930;4.492;2023-10-08T00:40:39;102255.09;;;26.22;47.11
79589;BME280;69067;51.930;4.492;2023-10-08T00:43:10;102236.84;;;26.23;47.29
79589;BME280;69067;51.930;4.492;2023-10-08T00:45:36;102246.06;;;26.22;46.97
79589;BME280;69067;51.930;4.492;2023-10-08T00:48:11;102244.34;;;26.21;47.06
79589;BME280;69067;51.930;4.492;2023-10-08T00:50:43;102231.56;;;26.21;47.24
79589;BME280;69067;51.930;4.492;2023-10-08T00:53:10;102234.50;;;26.20;46.76
79589;BME280;69067;51.930;4.492;2023-10-08T00:55:48;102235.97;;;26.22;47.73
79589;BME280;69067;51.930;4.492;2023-10-08T00:58:30;102237.88;;;26.22;47.43
79589;BME280;69067;51.930;4.492;2023-10-08T01:00:59;102235.97;;;26.22;46.86
79589;BME280;69067;51.930;4.492;2023-10-08T01:03:26;102232.41;;;26.22;47.08
79589;BME280;69067;51.930;4.492;2023-10-08T01:05:54;102235.97;;;26.22;47.62
79589;BME280;69067;51.930;4.492;2023-10-08T01:08:20;102249.00;;;26.20;47.19
79589;BME280;69067;51.930;4.492;2023-10-08T01:11:21;102265.84;;;26.24;46.65
79589;BME280;69067;51.930;4.492;2023-10-08T01:14:08;102254.06;;;26.23;47.19
79589;BME280;69067;51.930;4.492;2023-10-08T01:16:34;102265.84;;;26.24;46.96
79589;BME280;69067;51.930;4.492;2023-10-08T01:19:00;102255.78;;;26.24;47.09
79589;BME280;69067;51.930;4.492;2023-10-08T01:21:29;102260.22;;;26.25;47.21
79589;BME280;69067;51.930;4.492;2023-10-08T01:24:01;102268.41;;;26.25;47.30
79589;BME280;69067;51.930;4.492;2023-10-08T01:26:31;102265.84;;;26.24;47.34
79589;BME280;69067;51.930;4.492;2023-10-08T01:28:58;102261.06;;;26.26;47.37
79589;BME280;69067;51.930;4.492;2023-10-08T01:31:29;102260.22;;;26.25;47.10
79589;BME280;69067;51.930;4.492;2023-10-08T01:33:55;102259.53;;;26.23;46.75
79589;BME280;69067;51.930;4.492;2023-10-08T01:36:25;102258.16;;;26.27;47.16
79589;BME280;69067;51.930;4.492;2023-10-08T01:38:51;102248.06;;;26.28;46.80
79589;BME280;69067;51.930;4.492;2023-10-08T01:41:20;102251.00;;;26.26;46.79
79589;BME280;69067;51.930;4.492;2023-10-08T01:43:56;102257.31;;;26.27;46.70
79589;BME280;69067;51.930;4.492;2023-10-08T01:46:25;102260.88;;;26.27;46.33
79589;BME280;69067;51.930;4.492;2023-10-08T01:48:51;102269.59;;;26.23;46.75
79589;BME280;69067;51.930;4.492;2023-10-08T01:51:19;102271.41;;;26.31;46.51
79589;BME280;69067;51.930;4.492;2023-10-08T01:53:55;102279.78;;;26.29;46.86
79589;BME280;69067;51.930;4.492;2023-10-08T01:56:20;102289.50;;;26.32;46.43
79589;BME280;69067;51.930;4.492;2023-10-08T01:58:46;102303.16;;;26.32;46.47
79589;BME280;69067;51.930;4.492;2023-10-08T02:01:12;102302.47;;;26.30;47.00
79589;BME280;69067;51.930;4.492;2023-10-08T02:03:41;102306.91;;;26.31;47.12
79589;BME280;69067;51.930;4.492;2023-10-08T02:06:07;102306.06;;;26.30;46.63
79589;BME280;69067;51.930;4.492;2023-10-08T02:08:34;102311.34;;;26.32;46.58
79589;BME280;69067;51.930;4.492;2023-10-08T02:10:59;102306.91;;;26.31;46.42
79589;BME280;69067;51.930;4.492;2023-10-08T02:13:27;102315.97;;;26.31;47.17
79589;BME280;69067;51.930;4.492;2023-10-08T02:15:53;102299.56;;;26.31;46.40
79589;BME280;69067;51.930;4.492;2023-10-08T02:18:20;102300.59;;;26.30;46.85
79589;BME280;69067;51.930;4.492;2023-10-08T02:20:48;102296.00;;;26.31;46.33
79589;BME280;69067;51.930;4.492;2023-10-08T02:23:14;102289.41;;;26.25;46.08
79589;BME280;69067;51.930;4.492;2023-10-08T02:25:40;102298.72;;;26.31;46.25
79589;BME280;69067;51.930;4.492;2023-10-08T02:28:07;102289.84;;;26.28;47.00
79589;BME280;69067;51.930;4.492;2023-10-08T02:30:38;102291.97;;;26.26;47.18
79589;BME280;69067;51.930;4.492;2023-10-08T02:33:08;102282.34;;;26.31;46.75
79589;BME280;69067;51.930;4.492;2023-10-08T02:35:43;102292.28;;;26.23;46.72
79589;BME280;69067;51.930;4.492;2023-10-08T02:38:13;102284.81;;;26.25;47.02
79589;BME280;69067;51.930;4.492;2023-10-08T02:40:42;102301.19;;;26.25;46.19
79589;BME280;69067;51.930;4.492;2023-10-08T02:43:12;102281.78;;;26.20;46.15
79589;BME280;69067;51.930;4.492;2023-10-08T02:45:41;102295.72;;;26.25;46.38
79589;BME280;69067;51.930;4.492;2023-10-08T02:48:08;102301.34;;;26.24;46.55
79589;BME280;69067;51.930;4.492;2023-10-08T02:50:44;102307.69;;;26.24;46.39
79589;BME280;69067;51.930;4.492;2023-10-08T02:53:13;102301.53;;;26.22;46.81
79589;BME280;69067;51.930;4.492;2023-10-08T02:55:49;102295.03;;;26.23;47.09
79589;BME280;69067;51.930;4.492;2023-10-08T02:58:15;102292.69;;;26.20;46.35
79589;BME280;69067;51.930;4.492;2023-10-08T03:00:49;102289.97;;;26.20;47.04
79589;BME280;69067;51.930;4.492;2023-10-08T03:03:15;102280.72;;;26.21;46.23
79589;BME280;69067;51.930;4.492;2023-10-08T03:05:45;102288.28;;;26.19;47.04
79589;BME280;69067;51.930;4.492;2023-10-08T03:08:13;102287.22;;;26.20;46.67
79589;BME280;69067;51.930;4.492;2023-10-08T03:10:44;102298.16;;;26.20;46.46
79589;BME280;69067;51.930;4.492;2023-10-08T03:13:10;102292.69;;;26.20;47.01
79589;BME280;69067;51.930;4.492;2023-10-08T03:15:40;102292.69;;;26.20;46.71
79589;BME280;69067;51.930;4.492;2023-10-08T03:18:13;102289.13;;;26.20;47.07
79589;BME280;69067;51.930;4.492;2023-10-08T03:20:44;102289.97;;;26.20;46.58
79589;BME280;69067;51.930;4.492;2023-10-08T03:23:13;102292.69;;;26.20;46.66
79589;BME280;69067;51.930;4.492;2023-10-08T03:25:59;102281.97;;;26.19;46.98
79589;BME280;69067;51.930;4.492;2023-10-08T03:28:29;102289.97;;;26.20;46.75
79589;BME280;69067;51.930;4.492;2023-10-08T03:30:55;102306.34;;;26.20;46.46
79589;BME280;69067;51.930;4.492;2023-10-08T03:33:29;102308.22;;;26.20;46.68
79589;BME280;69067;51.930;4.492;2023-10-08T03:36:06;102318.94;;;26.21;47.02
79589;BME280;69067;51.930;4.492;2023-10-08T03:38:59;102324.41;;;26.21;47.34
79589;BME280;69067;51.930;4.492;2023-10-08T03:41:34;102321.66;;;26.21;46.46
79589;BME280;69067;51.930;4.492;2023-10-08T03:44:06;102327.13;;;26.21;46.79
79589;BME280;69067;51.930;4.492;2023-10-08T03:46:39;102328.81;;;26.22;47.36
79589;BME280;69067;51.930;4.492;2023-10-08T03:49:11;102335.00;;;26.24;46.42
79589;BME280;69067;51.930;4.492;2023-10-08T03:51:51;102340.59;;;26.23;47.33
79589;BME280;69067;51.930;4.492;2023-10-08T03:54:18;102333.97;;;26.25;46.99
79589;BME280;69067;51.930;4.492;2023-10-08T03:56:50;102346.56;;;26.26;46.83
79589;BME280;69067;51.930;4.492;2023-10-08T03:59:17;102340.91;;;26.28;46.59
79589;BME280;69067;51.930;4.492;2023-10-08T04:02:00;102342.16;;;26.25;46.75
79589;BME280;69067;51.930;4.492;2023-10-08T04:04:41;102339.41;;;26.25;46.51
79589;BME280;69067;51.930;4.492;2023-10-08T04:07:18;102337.03;;;26.22;46.72
79589;BME280;69067;51.930;4.492;2023-10-08T04:09:55;102331.75;;;26.21;47.24
79589;BME280;69067;51.930;4.492;2023-10-08T04:12:51;102342.28;;;26.24;46.54
79589;BME280;69067;51.930;4.492;2023-10-08T04:15:19;102353.06;;;26.25;47.11
79589;BME280;69067;51.930;4.492;2023-10-08T04:17:45;102370.50;;;26.24;46.63
79589;BME280;69067;51.930;4.492;2023-10-08T04:20:16;102373.22;;;26.24;46.86
79589;BME280;69067;51.930;4.492;2023-10-08T04:23:08;102368.94;;;26.22;46.56
79589;BME280;69067;51.930;4.492;2023-10-08T04:25:47;102378.69;;;26.24;46.54
79589;BME280;69067;51.930;4.492;2023-10-08T04:28:20;102386.88;;;26.24;47.51
79589;BME280;69067;51.930;4.492;2023-10-08T04:30:47;102381.41;;;26.24;46.80
79589;BME280;69067;51.930;4.492;2023-10-08T04:33:14;102389.03;;;26.29;46.33
79589;BME280;69067;51.930;4.492;2023-10-08T04:35:44;102374.97;;;26.17;47.15
79589;BME280;69067;51.930;4.492;2023-10-08T04:38:15;102373.56;;;26.21;47.12
79589;BME280;69067;51.930;4.492;2023-10-08T04:40:44;102369.97;;;26.21;46.94
79589;BME280;69067;51.930;4.492;2023-10-08T04:43:17;102359.91;;;26.21;47.18
79589;BME280;69067;51.930;4.492;2023-10-08T04:45:51;102368.09;;;26.21;46.78
79589;BME280;69067;51.930;4.492;2023-10-08T04:48:17;102366.41;;;26.20;47.08
79589;BME280;69067;51.930;4.492;2023-10-08T04:50:50;102383.84;;;26.19;46.86
79589;BME280;69067;51.930;4.492;2023-10-08T04:53:31;102384.69;;;26.20;47.16
79589;BME280;69067;51.930;4.492;2023-10-08T04:56:06;102399.19;;;26.20;47.12
79589;BME280;69067;51.930;4.492;2023-10-08T04:58:42;102400.00;;;26.21;46.84
79589;BME280;69067;51.930;4.492;2023-10-08T05:01:21;102408.19;;;26.21;47.47
79589;BME280;69067;51.930;4.492;2023-10-08T05:03:48;102403.59;;;26.21;47.30
79589;BME280;69067;51.930;4.492;2023-10-08T05:06:31;102379.69;;;26.23;47.13
79589;BME280;69067;51.930;4.492;2023-10-08T05:09:18;102361.25;;;26.25;46.37
79589;BME280;69067;51.930;4.492;2023-10-08T05:11:45;102362.44;;;26.23;46.95
79589;BME280;69067;51.930;4.492;2023-10-08T05:14:23;102363.16;;;26.25;46.84
79589;BME280;69067;51.930;4.492;2023-10-08T05:17:05;102364.00;;;26.25;47.10
79589;BME280;69067;51.930;4.492;2023-10-08T05:19:43;102362.28;;;26.24;47.24
79589;BME280;69067;51.930;4.492;2023-10-08T05:22:35;102355.09;;;26.23;46.45
79589;BME280;69067;51.930;4.492;2023-10-08T05:25:04;102358.69;;;26.24;47.22
79589;BME280;69067;51.930;4.492;2023-10-08T05:27:52;102363.28;;;26.23;46.71
79589;BME280;69067;51.930;4.492;2023-10-08T05:30:27;102385.13;;;26.23;47.41
79589;BME280;69067;51.930;4.492;2023-10-08T05:32:59;102383.63;;;26.21;47.05
79589;BME280;69067;51.930;4.492;2023-10-08T05:35:45;102374.91;;;26.25;46.64
79589;BME280;69067;51.930;4.492;2023-10-08T05:38:22;102377.66;;;26.25;46.97
79589;BME280;69067;51.930;4.492;2023-10-08T05:40:52;102380.19;;;26.27;46.82
79589;BME280;69067;51.930;4.492;2023-10-08T05:46:24;102367.91;;;26.23;46.83
79589;BME280;69067;51.930;4.492;2023-10-08T05:48:50;102366.03;;;26.23;47.14
79589;BME280;69067;51.930;4.492;2023-10-08T05:51:34;102373.22;;;26.24;47.15
79589;BME280;69067;51.930;4.492;2023-10-08T05:54:31;102364.50;;;26.21;47.55
79589;BME280;69067;51.930;4.492;2023-10-08T05:57:01;102367.44;;;26.19;47.58
79589;BME280;69067;51.930;4.492;2023-10-08T05:59:46;102372.91;;;26.19;46.78
79589;BME280;69067;51.930;4.492;2023-10-08T06:02:40;102376.28;;;26.21;47.01
79589;BME280;69067;51.930;4.492;2023-10-08T06:05:10;102372.69;;;26.21;47.13
79589;BME280;69067;51.930;4.492;2023-10-08T06:10:14;102391.34;;;26.17;47.54
79589;BME280;69067;51.930;4.492;2023-10-08T06:15:45;102405.69;;;26.19;47.46
79589;BME280;69067;51.930;4.492;2023-10-08T06:18:27;102405.00;;;26.17;47.75
79589;BME280;69067;51.930;4.492;2023-10-08T06:21:00;102422.59;;;26.15;46.96
79589;BME280;69067;51.930;4.492;2023-10-08T06:23:28;102425.56;;;26.13;47.06
79589;BME280;69067;51.930;4.492;2023-10-08T06:25:57;102424.03;;;26.11;47.31
79589;BME280;69067;51.930;4.492;2023-10-08T06:28:25;102428.63;;;26.10;47.01
79589;BME280;69067;51.930;4.492;2023-10-08T06:30:55;102437.69;;;26.11;47.54
79589;BME280;69067;51.930;4.492;2023-10-08T06:33:23;102442.38;;;26.17;46.97
79589;BME280;69067;51.930;4.492;2023-10-08T06:35:51;102439.91;;;26.07;47.33
79589;BME280;69067;51.930;4.492;2023-10-08T06:38:36;102448.50;;;26.04;46.96
79589;BME280;69067;51.930;4.492;2023-10-08T06:41:08;102444.56;;;26.07;47.23
79589;BME280;69067;51.930;4.492;2023-10-08T06:43:46;102449.16;;;26.06;46.79
79589;BME280;69067;51.930;4.492;2023-10-08T06:46:39;102442.88;;;26.06;47.31
79589;BME280;69067;51.930;4.492;2023-10-08T06:49:08;102445.59;;;26.06;47.70
79589;BME280;69067;51.930;4.492;2023-10-08T06:51:43;102452.09;;;26.05;47.11
79589;BME280;69067;51.930;4.492;2023-10-08T06:54:09;102446.81;;;26.03;46.66
79589;BME280;69067;51.930;4.492;2023-10-08T06:56:42;102470.34;;;26.04;47.48
79589;BME280;69067;51.930;4.492;2023-10-08T06:59:13;102474.28;;;26.02;47.09
79589;BME280;69067;51.930;4.492;2023-10-08T07:01:39;102481.44;;;26.03;46.92
79589;BME280;69067;51.930;4.492;2023-10-08T07:04:06;102478.03;;;26.01;46.42
79589;BME280;69067;51.930;4.492;2023-10-08T07:06:38;102484.34;;;26.01;46.47
79589;BME280;69067;51.930;4.492;2023-10-08T07:09:06;102480.97;;;25.99;46.96
79589;BME280;69067;51.930;4.492;2023-10-08T07:11:39;102479.75;;;26.02;46.22
79589;BME280;69067;51.930;4.492;2023-10-08T07:14:09;102476.38;;;26.00;45.96
79589;BME280;69067;51.930;4.492;2023-10-08T07:16:36;102489.81;;;26.01;45.94
79589;BME280;69067;51.930;4.492;2023-10-08T07:19:02;102478.88;;;26.01;46.33
79589;BME280;69067;51.930;4.492;2023-10-08T07:21:30;102474.66;;;25.99;45.93
79589;BME280;69067;51.930;4.492;2023-10-08T07:24:13;102480.97;;;25.99;46.29
79589;BME280;69067;51.930;4.492;2023-10-08T07:26:43;102488.94;;;26.01;45.71
79589;BME280;69067;51.930;4.492;2023-10-08T07:29:14;102497.16;;;26.01;45.72
79589;BME280;69067;51.930;4.492;2023-10-08T07:31:46;102500.09;;;25.99;45.50
79589;BME280;69067;51.930;4.492;2023-10-08T07:34:18;102506.19;;;26.01;46.35
79589;BME280;69067;51.930;4.492;2023-10-08T07:36:52;102512.69;;;26.00;46.22
79589;BME280;69067;51.930;4.492;2023-10-08T07:39:21;102507.22;;;26.00;45.83
79589;BME280;69067;51.930;4.492;2023-10-08T07:41:57;102513.25;;;25.96;46.21
79589;BME280;69067;51.930;4.492;2023-10-08T07:44:25;102505.59;;;25.91;46.34
79589;BME280;69067;51.930;4.492;2023-10-08T07:46:54;102510.41;;;25.89;46.63
79589;BME280;69067;51.930;4.492;2023-10-08T07:49:20;102517.06;;;25.86;46.35
79589;BME280;69067;51.930;4.492;2023-10-08T07:51:49;102523.56;;;25.85;45.86
79589;BME280;69067;51.930;4.492;2023-10-08T07:54:20;102542.00;;;25.83;46.04
79589;BME280;69067;51.930;4.492;2023-10-08T07:56:51;102544.22;;;25.80;46.22
79589;BME280;69067;51.930;4.492;2023-10-08T07:59:17;102539.84;;;25.79;46.17
79589;BME280;69067;51.930;4.492;2023-10-08T08:01:43;102537.44;;;25.76;45.76
79589;BME280;69067;51.930;4.492;2023-10-08T08:04:12;102535.41;;;25.78;46.14
79589;BME280;69067;51.930;4.492;2023-10-08T08:06:51;102529.94;;;25.78;46.00
79589;BME280;69067;51.930;4.492;2023-10-08T08:09:18;102538.47;;;25.75;45.72
79589;BME280;69067;51.930;4.492;2023-10-08T08:11:49;102539.16;;;25.77;45.67
79589;BME280;69067;51.930;4.492;2023-10-08T08:14:16;102538.31;;;25.76;46.41
79589;BME280;69067;51.930;4.492;2023-10-08T08:16:45;102540.00;;;25.77;45.99
79589;BME280;69067;51.930;4.492;2023-10-08T08:19:17;102536.78;;;25.74;46.10
79589;BME280;69067;51.930;4.492;2023-10-08T08:21:50;102550.25;;;25.75;45.94
79589;BME280;69067;51.930;4.492;2023-10-08T08:24:18;102548.53;;;25.74;45.64
79589;BME280;69067;51.930;4.492;2023-10-08T08:26:55;102555.53;;;25.77;45.64
79589;BME280;69067;51.930;4.492;2023-10-08T08:29:33;102563.72;;;25.77;46.12
79589;BME280;69067;51.930;4.492;2023-10-08T08:32:10;102559.28;;;25.76;45.71
79589;BME280;69067;51.930;4.492;2023-10-08T08:34:42;102557.56;;;25.75;45.70
79589;BME280;69067;51.930;4.492;2023-10-08T08:37:12;102560.31;;;25.75;45.33
79589;BME280;69067;51.930;4.492;2023-10-08T08:39:40;102570.53;;;25.73;45.53
79589;BME280;69067;51.930;4.492;2023-10-08T08:42:08;102574.97;;;25.74;46.04
79589;BME280;69067;51.930;4.492;2023-10-08T08:44:38;102567.81;;;25.73;45.88
79589;BME280;69067;51.930;4.492;2023-10-08T08:47:17;102562.56;;;25.71;45.24
79589;BME280;69067;51.930;4.492;2023-10-08T08:49:44;102562.75;;;25.70;45.63
79589;BME280;69067;51.930;4.492;2023-10-08T08:52:11;102575.34;;;25.71;45.75
79589;BME280;69067;51.930;4.492;2023-10-08T08:54:39;102575.34;;;25.71;45.55
79589;BME280;69067;51.930;4.492;2023-10-08T08:57:05;102579.78;;;25.72;45.39
79589;BME280;69067;51.930;4.492;2023-10-08T08:59:34;102574.69;;;25.69;45.26
79589;BME280;69067;51.930;4.492;2023-10-08T09:02:02;102581.66;;;25.71;46.02
79589;BME280;69067;51.930;4.492;2023-10-08T09:04:30;102575.69;;;25.68;45.66
79589;BME280;69067;51.930;4.492;2023-10-08T09:06:58;102576.56;;;25.68;45.30
79589;BME280;69067;51.930;4.492;2023-10-08T09:09:33;102581.84;;;25.70;45.11
79589;BME280;69067;51.930;4.492;2023-10-08T09:11:59;102571.47;;;25.65;44.68
79589;BME280;69067;51.930;4.492;2023-10-08T09:14:26;102576.09;;;25.65;45.01
79589;BME280;69067;51.930;4.492;2023-10-08T09:16:59;102568.25;;;25.62;45.38
79589;BME280;69067;51.930;4.492;2023-10-08T09:19:26;102568.91;;;25.64;44.96
79589;BME280;69067;51.930;4.492;2023-10-08T09:22:12;102552.38;;;25.65;45.10
79589;BME280;69067;51.930;4.492;2023-10-08T09:24:41;102558.00;;;25.64;44.81
79589;BME280;69067;51.930;4.492;2023-10-08T09:27:12;102560.75;;;25.64;45.49
79589;BME280;69067;51.930;4.492;2023-10-08T09:29:41;102565.50;;;25.62;45.36
79589;BME280;69067;51.930;4.492;2023-10-08T09:32:14;102561.59;;;25.64;45.77
79589;BME280;69067;51.930;4.492;2023-10-08T09:34:40;102559.72;;;25.65;44.66
79589;BME280;69067;51.930;4.492;2023-10-08T09:37:06;102559.22;;;25.61;45.29
79589;BME280;69067;51.930;4.492;2023-10-08T09:39:33;102566.03;;;25.65;45.51
79589;BME280;69067;51.930;4.492;2023-10-08T09:42:03;102565.34;;;25.63;45.70
79589;BME280;69067;51.930;4.492;2023-10-08T09:44:32;102578.13;;;25.63;45.48
79589;BME280;69067;51.930;4.492;2023-10-08T09:47:07;102575.56;;;25.61;44.86
79589;BME280;69067;51.930;4.492;2023-10-08T09:49:53;102574.38;;;25.64;44.86
79589;BME280;69067;51.930;4.492;2023-10-08T09:52:31;102563.63;;;25.62;44.68
79589;BME280;69067;51.930;4.492;2023-10-08T09:55:08;102557.34;;;25.62;45.04
79589;BME280;69067;51.930;4.492;2023-10-08T09:57:36;102570.97;;;25.62;44.92
79589;BME280;69067;51.930;4.492;2023-10-08T10:00:06;102566.53;;;25.61;45.50
79589;BME280;69067;51.930;4.492;2023-10-08T10:02:41;102571.16;;;25.60;44.64
79589;BME280;69067;51.930;4.492;2023-10-08T10:05:13;102574.72;;;25.61;45.24
79589;BME280;69067;51.930;4.492;2023-10-08T10:07:50;102565.50;;;25.62;45.05
79589;BME280;69067;51.930;4.492;2023-10-08T10:10:33;102556.66;;;25.60;45.06
79589;BME280;69067;51.930;4.492;2023-10-08T10:13:10;102553.75;;;25.61;44.62
79589;BME280;69067;51.930;4.492;2023-10-08T10:15:37;102558.84;;;25.64;44.92
79589;BME280;69067;51.930;4.492;2023-10-08T10:18:13;102558.00;;;25.64;44.41
79589;BME280;69067;51.930;4.492;2023-10-08T10:23:45;102564.97;;;25.66;44.74
79589;BME280;69067;51.930;4.492;2023-10-08T10:26:35;102566.84;;;25.66;44.76
79589;BME280;69067;51.930;4.492;2023-10-08T10:31:49;102575.97;;;25.58;45.15
79589;BME280;69067;51.930;4.492;2023-10-08T10:34:28;102578.25;;;25.69;44.38
79589;BME280;69067;51.930;4.492;2023-10-08T10:36:57;102565.88;;;25.59;44.50
79589;BME280;69067;51.930;4.492;2023-10-08T10:39:26;102569.28;;;25.61;44.63
79589;BME280;69067;51.930;4.492;2023-10-08T10:41:54;102573.88;;;25.60;44.45
79589;BME280;69067;51.930;4.492;2023-10-08T10:44:25;102577.09;;;25.64;43.90
79589;BME280;69067;51.930;4.492;2023-10-08T10:46:51;102573.53;;;25.63;44.32
79589;BME280;69067;51.930;4.492;2023-10-08T10:49:21;102580.47;;;25.66;44.58
79589;BME280;69067;51.930;4.492;2023-10-08T10:51:48;102582.38;;;25.65;44.16
79589;BME280;69067;51.930;4.492;2023-10-08T10:54:26;102576.94;;;25.65;44.95
79589;BME280;69067;51.930;4.492;2023-10-08T10:57:01;102568.25;;;25.62;45.00
79589;BME280;69067;51.930;4.492;2023-10-08T10:59:35;102576.13;;;25.48;45.01
79589;BME280;69067;51.930;4.492;2023-10-08T11:02:04;102589.22;;;25.53;44.16
79589;BME280;69067;51.930;4.492;2023-10-08T11:04:36;102573.25;;;25.50;44.45
79589;BME280;69067;51.930;4.492;2023-10-08T11:07:15;102569.09;;;25.54;45.11
79589;BME280;69067;51.930;4.492;2023-10-08T11:09:43;102561.34;;;25.43;44.93
79589;BME280;69067;51.930;4.492;2023-10-08T11:12:12;102559.09;;;25.46;44.49
79589;BME280;69067;51.930;4.492;2023-10-08T11:14:41;102557.72;;;25.50;45.21
79589;BME280;69067;51.930;4.492;2023-10-08T11:19:44;102542.38;;;25.49;45.41
79589;BME280;69067;51.930;4.492;2023-10-08T11:22:15;102544.25;;;25.49;45.33
79589;BME280;69067;51.930;4.492;2023-10-08T11:24:48;102551.25;;;25.52;45.25
79589;BME280;69067;51.930;4.492;2023-10-08T11:27:19;102547.28;;;25.54;45.20
79589;BME280;69067;51.930;4.492;2023-10-08T11:29:56;102537.41;;;25.53;44.86
79589;BME280;69067;51.930;4.492;2023-10-08T11:32:24;102541.16;;;25.52;45.12
79589;BME280;69067;51.930;4.492;2023-10-08T11:34:55;102544.94;;;25.51;45.05
79589;BME280;69067;51.930;4.492;2023-10-08T11:37:32;102552.06;;;25.52;45.18
79589;BME280;69067;51.930;4.492;2023-10-08T11:40:02;102553.97;;;25.52;45.20
79589;BME280;69067;51.930;4.492;2023-10-08T11:42:38;102553.13;;;25.51;45.05
79589;BME280;69067;51.930;4.492;2023-10-08T11:45:04;102554.78;;;25.52;45.00
79589;BME280;69067;51.930;4.492;2023-10-08T11:47:50;102549.53;;;25.50;44.92
79589;BME280;69067;51.930;4.492;2023-10-08T11:50:28;102549.53;;;25.50;45.21
79589;BME280;69067;51.930;4.492;2023-10-08T11:53:01;102559.78;;;25.48;45.45
79589;BME280;69067;51.930;4.492;2023-10-08T11:55:35;102550.75;;;25.48;45.56
79589;BME280;69067;51.930;4.492;2023-10-08T11:58:02;102547.16;;;25.47;45.58
79589;BME280;69067;51.930;4.492;2023-10-08T12:00:45;102550.38;;;25.51;45.44
79589;BME280;69067;51.930;4.492;2023-10-08T12:03:12;102538.81;;;25.49;45.13
79589;BME280;69067;51.930;4.492;2023-10-08T12:05:38;102544.09;;;25.50;45.34
79589;BME280;69067;51.930;4.492;2023-10-08T12:08:17;102544.94;;;25.51;45.58
79589;BME280;69067;51.930;4.492;2023-10-08T12:10:46;102534.19;;;25.49;45.93
79589;BME280;69067;51.930;4.492;2023-10-08T12:13:14;102527.50;;;25.52;45.45
79589;BME280;69067;51.930;4.492;2023-10-08T12:15:44;102520.84;;;25.55;45.71
79589;BME280;69067;51.930;4.492;2023-10-08T12:18:10;102520.19;;;25.52;45.52
79589;BME280;69067;51.930;4.492;2023-10-08T12:20:50;102509.09;;;25.54;45.49
79589;BME280;69067;51.930;4.492;2023-10-08T12:23:16;102507.22;;;25.55;45.26
79589;BME280;69067;51.930;4.492;2023-10-08T12:25:55;102497.16;;;25.55;45.49
79589;BME280;69067;51.930;4.492;2023-10-08T12:28:25;102490.00;;;25.54;45.52
79589;BME280;69067;51.930;4.492;2023-10-08T12:30:53;102485.22;;;25.56;45.45
79589;BME280;69067;51.930;4.492;2023-10-08T12:33:19;102491.53;;;25.57;45.48
79589;BME280;69067;51.930;4.492;2023-10-08T12:35:46;102490.53;;;25.58;45.81
79589;BME280;69067;51.930;4.492;2023-10-08T12:38:15;102483.34;;;25.57;45.67
79589;BME280;69067;51.930;4.492;2023-10-08T12:40:41;102477.22;;;25.55;45.35
79589;BME280;69067;51.930;4.492;2023-10-08T12:43:29;102464.25;;;25.57;45.36
79589;BME280;69067;51.930;4.492;2023-10-08T12:45:56;102472.28;;;25.58;44.91
79589;BME280;69067;51.930;4.492;2023-10-08T12:48:25;102466.31;;;25.55;45.30
79589;BME280;69067;51.930;4.492;2023-10-08T12:50:53;102465.78;;;25.59;46.01
79589;BME280;69067;51.930;4.492;2023-10-08T12:53:24;102465.59;;;25.61;45.10
79589;BME280;69067;51.930;4.492;2023-10-08T12:56:00;102461.16;;;25.60;45.19
79589;BME280;69067;51.930;4.492;2023-10-08T12:58:34;102452.97;;;25.60;45.38
79589;BME280;69067;51.930;4.492;2023-10-08T13:01:10;102452.97;;;25.60;45.58
79589;BME280;69067;51.930;4.492;2023-10-08T13:03:37;102450.09;;;25.61;45.86
79589;BME280;69067;51.930;4.492;2023-10-08T13:06:10;102453.66;;;25.62;46.02
79589;BME280;69067;51.930;4.492;2023-10-08T13:08:40;102443.41;;;25.64;46.57
79589;BME280;69067;51.930;4.492;2023-10-08T13:11:06;102453.47;;;25.63;45.92
79589;BME280;69067;51.930;4.492;2023-10-08T13:13:35;102435.59;;;25.61;45.81
79589;BME280;69067;51.930;4.492;2023-10-08T13:16:02;102436.94;;;25.65;46.22
79589;BME280;69067;51.930;4.492;2023-10-08T13:18:33;102440.50;;;25.65;46.05
79589;BME280;69067;51.930;4.492;2023-10-08T13:21:03;102443.41;;;25.64;46.13
79589;BME280;69067;51.930;4.492;2023-10-08T13:23:29;102431.66;;;25.63;46.04
79589;BME280;69067;51.930;4.492;2023-10-08T13:25:56;102423.19;;;25.58;46.37
79589;BME280;69067;51.930;4.492;2023-10-08T13:28:24;102439.66;;;25.65;46.66
79589;BME280;69067;51.930;4.492;2023-10-08T13:30:53;102435.41;;;25.62;46.50